createdAt,value
2022-12-01T00:01:25.920Z,101670.64
2022-12-01T00:03:54.207Z,101667.14
2022-12-01T00:06:22.448Z,101666.42
2022-12-01T00:09:07.872Z,101665.52
2022-12-01T00:11:37.842Z,101664.10
2022-12-01T00:14:05.996Z,101666.68
2022-12-01T00:16:34.112Z,101666.34
2022-12-01T00:19:02.013Z,101665.17
2022-12-01T00:21:29.639Z,101669.07
2022-12-01T00:23:58.371Z,101669.39
2022-12-01T00:26:26.966Z,101667.98
2022-12-01T00:28:59.468Z,101666.36
2022-12-01T00:31:27.515Z,101668.93
2022-12-01T00:33:55.810Z,101671.16
2022-12-01T00:36:23.678Z,101666.18
2022-12-01T00:38:53.863Z,101667.19
2022-12-01T00:41:23.254Z,101666.98
2022-12-01T00:43:51.148Z,101668.19
2022-12-01T00:46:18.776Z,101669.25
2022-12-01T00:48:46.389Z,101667.79
2022-12-01T00:51:13.978Z,101668.23
2022-12-01T00:53:41.468Z,101672.24
2022-12-01T00:56:09.099Z,101668.02
2022-12-01T00:58:36.607Z,101663.13
2022-12-01T01:01:04.318Z,101665.55
2022-12-01T01:03:33.738Z,101662.36
2022-12-01T01:06:07.567Z,101664.30
2022-12-01T01:08:35.602Z,101661.87
2022-12-01T01:11:04.420Z,101660.59
2022-12-01T01:13:32.412Z,101659.48
2022-12-01T01:16:10.089Z,101655.29
2022-12-01T01:18:37.591Z,101653.41
2022-12-01T01:21:08.301Z,101648.98
2022-12-01T01:23:35.840Z,101648.09
2022-12-01T01:26:05.674Z,101644.49
2022-12-01T01:28:33.195Z,101642.98
2022-12-01T01:31:06.464Z,101645.77
2022-12-01T01:33:34.732Z,101641.54
2022-12-01T01:36:03.579Z,101641.96
2022-12-01T01:38:31.396Z,101643.13
2022-12-01T01:40:58.911Z,101639.48
2022-12-01T01:43:59.398Z,101639.88
2022-12-01T01:46:30.368Z,101638.94
2022-12-01T01:49:05.904Z,101640.59
2022-12-01T01:51:51.283Z,101643.41
2022-12-01T01:54:21.734Z,101636.39
2022-12-01T01:56:52.010Z,101638.32
2022-12-01T01:59:24.829Z,101637.42
2022-12-01T02:02:02.498Z,101636.55
2022-12-01T02:04:30.188Z,101634.82
2022-12-01T02:06:57.744Z,101632.92
2022-12-01T02:09:25.387Z,101627.21
2022-12-01T02:12:11.404Z,101630.61
2022-12-01T02:15:01.049Z,101630.92
2022-12-01T02:17:41.873Z,101633.97
2022-12-01T02:20:25.541Z,101632.88
2022-12-01T02:23:10.218Z,101634.05
2022-12-01T02:25:59.888Z,101637.75
2022-12-01T02:28:34.781Z,101635.48
2022-12-01T02:31:16.771Z,101634.90
2022-12-01T02:33:54.118Z,101637.26
2022-12-01T02:36:42.048Z,101642.83
2022-12-01T02:39:35.551Z,101642.54
2022-12-01T02:42:45.882Z,101639.52
2022-12-01T02:45:22.358Z,101635.27
2022-12-01T02:47:54.226Z,101636.16
2022-12-01T02:50:24.003Z,101633.79
2022-12-01T02:52:53.201Z,101637.06
2022-12-01T02:55:21.159Z,101636.54
2022-12-01T02:57:48.707Z,101636.64
2022-12-01T03:00:17.916Z,101638.82
2022-12-01T03:02:53.454Z,101635.33
2022-12-01T03:05:28.809Z,101630.80
2022-12-01T03:08:00.865Z,101632.27
2022-12-01T03:10:51.460Z,101633.05
2022-12-01T03:13:26.715Z,101631.42
2022-12-01T03:16:14.489Z,101631.17
2022-12-01T03:18:53.430Z,101632.20
2022-12-01T03:21:32.799Z,101630.80
2022-12-01T03:24:18.297Z,101627.23
2022-12-01T03:26:51.703Z,101630.73
2022-12-01T03:29:31.798Z,101633.64
2022-12-01T03:32:13.243Z,101635.79
2022-12-01T03:34:50.120Z,101635.00
2022-12-01T03:37:31.897Z,101637.27
2022-12-01T03:40:01.420Z,101637.64
2022-12-01T03:42:37.240Z,101638.15
2022-12-01T03:45:15.014Z,101636.23
2022-12-01T03:47:43.153Z,101634.67
2022-12-01T03:50:14.286Z,101637.00
2022-12-01T03:52:54.996Z,101639.87
2022-12-01T03:55:24.726Z,101636.58
2022-12-01T03:58:00.076Z,101638.80
2022-12-01T04:00:28.941Z,101636.40
2022-12-01T04:02:58.514Z,101638.98
2022-12-01T04:05:26.749Z,101637.23
2022-12-01T04:07:54.348Z,101639.02
2022-12-01T04:10:22.138Z,101638.27
2022-12-01T04:12:49.817Z,101638.10
2022-12-01T04:15:17.659Z,101639.66
2022-12-01T04:17:45.205Z,101639.55
2022-12-01T04:20:14.938Z,101640.30
2022-12-01T04:22:42.474Z,101636.78
2022-12-01T04:25:11.199Z,101638.58
2022-12-01T04:27:38.800Z,101636.37
2022-12-01T04:30:07.627Z,101631.75
2022-12-01T04:32:40.217Z,101632.80
2022-12-01T04:35:09.975Z,101629.48
2022-12-01T04:37:40.991Z,101629.92
2022-12-01T04:40:08.951Z,101632.27
2022-12-01T04:42:36.622Z,101628.45
2022-12-01T04:45:04.297Z,101630.80
2022-12-01T04:47:31.777Z,101633.11
2022-12-01T04:49:59.317Z,101634.76
2022-12-01T04:52:30.726Z,101634.33
2022-12-01T04:55:01.516Z,101636.38
2022-12-01T04:57:28.971Z,101633.23
2022-12-01T04:59:56.451Z,101628.61
2022-12-01T05:02:24.019Z,101630.89
2022-12-01T05:04:51.556Z,101627.67
2022-12-01T05:07:19.283Z,101628.85
2022-12-01T05:09:47.223Z,101626.24
2022-12-01T05:12:17.029Z,101630.77
2022-12-01T05:14:45.769Z,101632.29
2022-12-01T05:17:13.210Z,101629.55
2022-12-01T05:19:56.675Z,101636.36
2022-12-01T05:22:56.893Z,101631.48
2022-12-01T05:25:11.553Z,101632.27
2022-12-01T05:27:39.166Z,101631.36
2022-12-01T05:30:07.583Z,101629.09
2022-12-01T05:32:35.121Z,101630.04
2022-12-01T05:35:02.569Z,101630.64
2022-12-01T05:37:33.251Z,101633.55
2022-12-01T05:40:01.790Z,101632.31
2022-12-01T05:42:29.273Z,101635.33
2022-12-01T05:44:56.886Z,101635.11
2022-12-01T05:47:24.394Z,101639.88
2022-12-01T05:49:51.907Z,101639.45
2022-12-01T05:52:19.393Z,101640.20
2022-12-01T05:54:46.939Z,101638.00
2022-12-01T05:57:14.461Z,101638.41
2022-12-01T05:59:41.952Z,101635.35
2022-12-01T06:02:09.470Z,101638.95
2022-12-01T06:04:37.424Z,101642.91
2022-12-01T06:07:04.886Z,101642.73
2022-12-01T06:09:32.389Z,101639.70
2022-12-01T06:11:59.883Z,101646.63
2022-12-01T06:14:27.425Z,101651.39
2022-12-01T06:16:54.961Z,101650.92
2022-12-01T06:19:22.562Z,101651.52
2022-12-01T06:21:50.005Z,101653.56
2022-12-01T06:24:17.480Z,101657.36
2022-12-01T06:26:47.510Z,101657.80
2022-12-01T06:29:15.007Z,101658.59
2022-12-01T06:31:42.766Z,101662.61
2022-12-01T06:34:11.336Z,101662.69
2022-12-01T06:36:38.801Z,101663.79
2022-12-01T06:39:10.647Z,101665.05
2022-12-01T06:41:39.062Z,101667.81
2022-12-01T06:44:07.273Z,101666.39
2022-12-01T06:46:35.100Z,101670.27
2022-12-01T06:49:03.393Z,101670.95
2022-12-01T06:51:33.782Z,101671.45
2022-12-01T06:54:05.699Z,101672.34
2022-12-01T06:56:33.552Z,101669.42
2022-12-01T06:59:01.526Z,101670.70
2022-12-01T07:01:29.672Z,101669.20
2022-12-01T07:03:57.468Z,101669.16
2022-12-01T07:06:24.979Z,101665.50
2022-12-01T07:08:53.223Z,101667.48
2022-12-01T07:11:20.802Z,101666.41
2022-12-01T07:13:50.241Z,101667.50
2022-12-01T07:16:17.766Z,101672.73
2022-12-01T07:18:45.316Z,101674.45
2022-12-01T07:21:14.949Z,101669.30
2022-12-01T07:23:43.512Z,101671.39
2022-12-01T07:26:14.023Z,101668.45
2022-12-01T07:28:42.420Z,101670.13
2022-12-01T07:31:15.930Z,101665.29
2022-12-01T07:33:43.915Z,101667.69
2022-12-01T07:36:12.750Z,101668.06
2022-12-01T07:38:41.314Z,101668.81
2022-12-01T07:41:12.190Z,101667.52
2022-12-01T07:43:40.005Z,101665.21
2022-12-01T07:46:15.774Z,101665.15
2022-12-01T07:48:47.560Z,101664.42
2022-12-01T07:51:17.724Z,101664.10
2022-12-01T07:53:47.063Z,101662.44
2022-12-01T07:56:17.660Z,101669.02
2022-12-01T07:58:45.574Z,101667.81
2022-12-01T08:01:19.291Z,101665.25
2022-12-01T08:03:52.368Z,101664.59
2022-12-01T08:06:21.258Z,101663.19
2022-12-01T08:08:49.711Z,101663.23
2022-12-01T08:11:17.390Z,101661.29
2022-12-01T08:13:45.418Z,101662.83
2022-12-01T08:16:15.617Z,101657.56
2022-12-01T08:18:43.281Z,101656.06
2022-12-01T08:21:14.107Z,101659.20
2022-12-01T08:23:42.515Z,101652.78
2022-12-01T08:26:17.586Z,101656.84
2022-12-01T08:28:46.562Z,101653.40
2022-12-01T08:31:18.185Z,101656.05
2022-12-01T08:33:46.921Z,101662.31
2022-12-01T08:36:15.588Z,101662.67
2022-12-01T08:38:45.002Z,101663.73
2022-12-01T08:41:13.882Z,101665.73
2022-12-01T08:44:00.922Z,101663.27
2022-12-01T08:46:32.899Z,101662.99
2022-12-01T08:49:02.086Z,101662.94
2022-12-01T08:51:30.118Z,101669.14
2022-12-01T08:53:59.621Z,101663.85
2022-12-01T08:56:37.833Z,101659.84
2022-12-01T08:59:06.449Z,101658.33
2022-12-01T09:01:34.616Z,101658.23
2022-12-01T09:04:06.673Z,101657.61
2022-12-01T09:06:40.534Z,101658.89
2022-12-01T09:09:18.183Z,101657.00
2022-12-01T09:11:47.468Z,101657.43
2022-12-01T09:14:18.135Z,101656.16
2022-12-01T09:16:47.600Z,101656.96
2022-12-01T09:19:23.734Z,101656.89
2022-12-01T09:21:53.126Z,101657.95
2022-12-01T09:24:21.273Z,101663.52
2022-12-01T09:26:49.324Z,101662.69
2022-12-01T09:29:17.024Z,101660.64
2022-12-01T09:31:45.189Z,101658.27
2022-12-01T09:34:17.345Z,101654.69
2022-12-01T09:36:46.510Z,101653.16
2022-12-01T09:39:19.767Z,101646.62
2022-12-01T09:41:52.985Z,101644.50
2022-12-01T09:44:32.597Z,101647.52
2022-12-01T09:47:25.879Z,101647.29
2022-12-01T09:50:06.802Z,101641.28
2022-12-01T09:52:42.353Z,101641.00
2022-12-01T09:55:16.203Z,101644.95
2022-12-01T09:57:47.457Z,101635.45
2022-12-01T10:00:24.489Z,101637.55
2022-12-01T10:03:24.034Z,101636.86
2022-12-01T10:06:29.700Z,101638.28
2022-12-01T10:09:00.102Z,101635.63
2022-12-01T10:11:40.901Z,101636.38
2022-12-01T10:14:20.069Z,101634.15
2022-12-01T10:16:59.879Z,101633.52
2022-12-01T10:19:49.732Z,101632.58
2022-12-01T10:22:39.534Z,101633.43
2022-12-01T10:25:31.577Z,101630.40
2022-12-01T10:28:08.111Z,101631.66
2022-12-01T10:30:46.416Z,101631.89
2022-12-01T10:33:35.608Z,101629.34
2022-12-01T10:36:03.408Z,101626.84
2022-12-01T10:38:36.166Z,101629.00
2022-12-01T10:41:06.797Z,101630.44
2022-12-01T10:43:41.189Z,101627.99
2022-12-01T10:46:19.495Z,101628.16
2022-12-01T10:48:56.563Z,101628.10
2022-12-01T10:51:26.029Z,101627.88
2022-12-01T10:54:16.859Z,101628.64
2022-12-01T10:56:48.365Z,101629.45
2022-12-01T10:59:26.935Z,101630.09
2022-12-01T11:01:56.953Z,101631.71
2022-12-01T11:04:57.058Z,101631.77
2022-12-01T11:07:40.535Z,101628.56
2022-12-01T11:10:33.235Z,101629.14
2022-12-01T11:13:29.384Z,101626.75
2022-12-01T11:16:02.800Z,101625.15
2022-12-01T11:18:39.178Z,101627.02
2022-12-01T11:21:26.862Z,101627.52
2022-12-01T11:23:56.300Z,101619.81
2022-12-01T11:26:28.249Z,101618.21
2022-12-01T11:29:01.158Z,101615.58
2022-12-01T11:31:49.474Z,101610.35
2022-12-01T11:34:29.794Z,101608.43
2022-12-01T11:37:15.522Z,101611.38
2022-12-01T11:39:46.233Z,101609.19
2022-12-01T11:42:13.680Z,101605.81
2022-12-01T11:44:51.667Z,101602.09
2022-12-01T11:47:25.581Z,101602.55
2022-12-01T11:50:04.786Z,101600.05
2022-12-01T11:52:36.344Z,101600.45
2022-12-01T11:55:22.050Z,101596.55
2022-12-01T11:57:53.212Z,101598.44
2022-12-01T12:00:23.074Z,101594.11
2022-12-01T12:03:12.825Z,101594.10
2022-12-01T12:09:16.161Z,101588.23
2022-12-01T12:11:55.867Z,101587.89
2022-12-01T12:14:55.882Z,101587.91
2022-12-01T12:17:23.350Z,101588.07
2022-12-01T12:20:23.189Z,101585.81
2022-12-01T12:22:55.739Z,101587.14
2022-12-01T12:25:29.349Z,101584.30
2022-12-01T12:28:23.517Z,101585.45
2022-12-01T12:31:23.081Z,101587.41
2022-12-01T12:34:23.564Z,101584.55
2022-12-01T12:37:07.054Z,101585.30
2022-12-01T12:39:54.657Z,101582.58
2022-12-01T12:42:33.107Z,101577.06
2022-12-01T12:45:27.009Z,101577.73
2022-12-01T12:48:26.428Z,101580.23
2022-12-01T12:51:14.365Z,101578.79
2022-12-01T12:53:49.123Z,101572.00
2022-12-01T12:56:22.571Z,101570.56
2022-12-01T12:58:57.607Z,101567.38
2022-12-01T13:01:48.628Z,101568.00
2022-12-01T13:04:22.932Z,101564.83
2022-12-01T13:07:00.720Z,101568.61
2022-12-01T13:09:53.177Z,101570.55
2022-12-01T13:12:35.773Z,101573.18
2022-12-01T13:15:15.330Z,101570.13
2022-12-01T13:17:51.572Z,101568.95
2022-12-01T13:20:27.518Z,101566.89
2022-12-01T13:22:58.611Z,101568.78
2022-12-01T13:25:38.113Z,101571.31
2022-12-01T13:28:15.440Z,101568.30
2022-12-01T13:31:05.783Z,101565.09
2022-12-01T13:33:36.351Z,101564.31
2022-12-01T13:39:07.246Z,101564.08
2022-12-01T13:41:39.710Z,101562.82
2022-12-01T13:44:23.813Z,101564.30
2022-12-01T13:46:58.474Z,101562.35
2022-12-01T13:49:52.532Z,101562.50
2022-12-01T13:52:23.394Z,101560.80
2022-12-01T13:55:07.282Z,101560.31
2022-12-01T13:57:43.329Z,101558.48
2022-12-01T14:00:28.705Z,101557.81
2022-12-01T14:03:13.458Z,101557.29
2022-12-01T14:06:06.452Z,101555.91
2022-12-01T14:08:39.948Z,101555.02
2022-12-01T14:11:26.246Z,101554.11
2022-12-01T14:14:12.546Z,101555.59
2022-12-01T14:16:58.670Z,101555.48
2022-12-01T14:19:47.751Z,101553.08
2022-12-01T14:22:31.339Z,101553.75
2022-12-01T14:25:00.068Z,101551.09
2022-12-01T14:27:43.908Z,101554.36
2022-12-01T14:30:41.034Z,101550.65
2022-12-01T14:33:40.482Z,101555.74
2022-12-01T14:36:24.070Z,101555.82
2022-12-01T14:39:03.522Z,101553.63
2022-12-01T14:41:43.617Z,101547.98
2022-12-01T14:44:33.022Z,101550.73
2022-12-01T14:47:19.839Z,101548.65
2022-12-01T14:49:50.854Z,101547.41
2022-12-01T14:52:50.345Z,101546.05
2022-12-01T14:55:25.068Z,101546.21
2022-12-01T14:58:06.158Z,101545.28
2022-12-01T15:00:37.498Z,101548.67
2022-12-01T15:03:12.863Z,101551.23
2022-12-01T15:05:43.336Z,101553.10
2022-12-01T15:08:58.428Z,101554.84
2022-12-01T15:11:23.499Z,101552.30
2022-12-01T15:13:56.250Z,101555.27
2022-12-01T15:16:28.176Z,101553.08
2022-12-01T15:18:56.702Z,101552.80
2022-12-01T15:21:29.282Z,101551.11
2022-12-01T15:24:03.628Z,101550.45
2022-12-01T15:26:36.907Z,101549.95
2022-12-01T15:29:21.581Z,101547.52
2022-12-01T15:31:59.000Z,101548.52
2022-12-01T15:34:45.233Z,101546.23
2022-12-01T15:37:15.877Z,101543.41
2022-12-01T15:39:47.051Z,101543.89
2022-12-01T15:42:33.360Z,101543.55
2022-12-01T15:45:18.479Z,101540.98
2022-12-01T15:47:48.836Z,101541.01
2022-12-01T15:50:44.543Z,101542.75
2022-12-01T15:53:33.401Z,101543.77
2022-12-01T15:56:05.648Z,101544.11
2022-12-01T15:58:42.931Z,101540.80
2022-12-01T16:01:30.764Z,101540.58
2022-12-01T16:04:16.155Z,101540.03
2022-12-01T16:07:11.795Z,101543.05
2022-12-01T16:09:42.405Z,101546.34
2022-12-01T16:12:12.979Z,101545.42
2022-12-01T16:15:13.908Z,101543.15
2022-12-01T16:17:50.898Z,101543.27
2022-12-01T16:20:24.963Z,101547.38
2022-12-01T16:23:02.300Z,101547.90
2022-12-01T16:25:35.804Z,101548.11
2022-12-01T16:28:06.193Z,101548.69
2022-12-01T16:30:37.785Z,101548.20
2022-12-01T16:33:22.999Z,101550.80
2022-12-01T16:35:51.433Z,101551.20
2022-12-01T16:38:22.539Z,101547.56
2022-12-01T16:40:59.306Z,101542.56
2022-12-01T16:43:28.831Z,101537.84
2022-12-01T16:46:02.993Z,101534.10
2022-12-01T16:48:31.131Z,101534.20
2022-12-01T16:51:02.951Z,101528.59
2022-12-01T16:53:30.918Z,101530.25
2022-12-01T16:56:01.217Z,101530.05
2022-12-01T16:58:28.782Z,101532.53
2022-12-01T17:00:56.772Z,101531.34
2022-12-01T17:03:26.488Z,101527.35
2022-12-01T17:05:54.489Z,101524.02
2022-12-01T17:08:22.338Z,101529.84
2022-12-01T17:10:51.620Z,101532.54
2022-12-01T17:13:23.321Z,101530.91
2022-12-01T17:15:54.501Z,101535.12
2022-12-01T17:18:23.822Z,101536.09
2022-12-01T17:21:02.690Z,101535.35
2022-12-01T17:23:30.350Z,101535.30
2022-12-01T17:25:57.835Z,101537.27
2022-12-01T17:28:25.965Z,101539.23
2022-12-01T17:30:53.551Z,101539.52
2022-12-01T17:33:21.193Z,101535.65
2022-12-01T17:35:49.825Z,101535.42
2022-12-01T17:38:17.299Z,101534.67
2022-12-01T17:40:44.837Z,101537.94
2022-12-01T17:43:12.290Z,101537.77
2022-12-01T17:45:42.122Z,101536.58
2022-12-01T17:48:09.851Z,101539.52
2022-12-01T17:50:38.006Z,101539.65
2022-12-01T17:53:05.492Z,101541.35
2022-12-01T17:55:32.969Z,101544.65
2022-12-01T17:58:00.529Z,101543.12
2022-12-01T18:00:27.998Z,101544.45
2022-12-01T18:02:55.477Z,101541.84
2022-12-01T18:05:24.766Z,101540.58
2022-12-01T18:07:52.514Z,101539.52
2022-12-01T18:10:20.198Z,101534.55
2022-12-01T18:12:47.697Z,101531.91
2022-12-01T18:15:17.090Z,101535.78
2022-12-01T18:17:44.626Z,101536.86
2022-12-01T18:20:12.502Z,101535.27
2022-12-01T18:22:39.983Z,101533.25
2022-12-01T18:25:07.911Z,101536.30
2022-12-01T18:27:35.451Z,101538.48
2022-12-01T18:30:04.063Z,101533.42
2022-12-01T18:32:31.617Z,101536.61
2022-12-01T18:34:59.112Z,101533.89
2022-12-01T18:37:26.700Z,101536.58
2022-12-01T18:39:57.594Z,101534.65
2022-12-01T18:42:25.140Z,101536.68
2022-12-01T18:44:53.011Z,101538.21
2022-12-01T18:47:20.788Z,101541.69
2022-12-01T18:49:48.305Z,101547.13
2022-12-01T18:52:15.817Z,101546.69
2022-12-01T18:54:43.318Z,101542.30
2022-12-01T18:57:11.832Z,101541.56
2022-12-01T18:59:39.299Z,101541.20
2022-12-01T19:02:07.203Z,101541.20
2022-12-01T19:04:34.758Z,101536.35
2022-12-01T19:07:03.061Z,101533.77
2022-12-01T19:09:30.526Z,101535.13
2022-12-01T19:11:59.964Z,101531.59
2022-12-01T19:14:28.430Z,101535.08
2022-12-01T19:16:56.586Z,101537.05
2022-12-01T19:19:24.230Z,101536.74
2022-12-01T19:21:53.067Z,101536.84
2022-12-01T19:24:20.715Z,101535.80
2022-12-01T19:26:48.249Z,101531.46
2022-12-01T19:29:15.756Z,101530.52
2022-12-01T19:31:43.249Z,101535.28
2022-12-01T19:34:10.746Z,101535.59
2022-12-01T19:36:38.228Z,101534.35
2022-12-01T19:39:07.734Z,101533.98
2022-12-01T19:41:35.857Z,101534.63
2022-12-01T19:44:03.617Z,101532.29
2022-12-01T19:46:31.238Z,101529.41
2022-12-01T19:49:00.746Z,101530.01
2022-12-01T19:51:31.467Z,101531.49
2022-12-01T19:53:59.008Z,101533.47
2022-12-01T19:56:28.375Z,101536.98
2022-12-01T19:58:56.962Z,101539.77
2022-12-01T20:01:25.601Z,101536.40
2022-12-01T20:03:54.242Z,101539.81
2022-12-01T20:06:25.211Z,101545.55
2022-12-01T20:08:54.217Z,101549.06
2022-12-01T20:11:21.747Z,101553.13
2022-12-01T20:13:49.264Z,101557.59
2022-12-01T20:16:22.418Z,101558.91
2022-12-01T20:18:51.249Z,101560.23
2022-12-01T20:21:28.089Z,101559.64
2022-12-01T20:23:58.585Z,101560.58
2022-12-01T20:26:30.772Z,101558.20
2022-12-01T20:29:02.155Z,101555.48
2022-12-01T20:31:31.706Z,101555.17
2022-12-01T20:34:02.053Z,101559.17
2022-12-01T20:36:29.771Z,101557.33
2022-12-01T20:38:57.440Z,101556.18
2022-12-01T20:41:24.955Z,101556.65
2022-12-01T20:43:52.474Z,101556.29
2022-12-01T20:46:20.037Z,101555.91
2022-12-01T20:48:47.628Z,101556.42
2022-12-01T20:51:16.027Z,101550.09
2022-12-01T20:53:59.632Z,101549.75
2022-12-01T20:56:31.576Z,101549.75
2022-12-01T20:58:59.898Z,101551.14
2022-12-01T21:01:27.774Z,101548.58
2022-12-01T21:03:55.390Z,101549.92
2022-12-01T21:06:23.145Z,101549.52
2022-12-01T21:08:50.760Z,101550.29
2022-12-01T21:11:40.203Z,101549.98
2022-12-01T21:14:16.345Z,101550.75
2022-12-01T21:16:48.329Z,101546.73
2022-12-01T21:19:26.208Z,101548.61
2022-12-01T21:21:53.845Z,101544.48
2022-12-01T21:24:33.190Z,101547.43
2022-12-01T21:27:12.865Z,101557.27
2022-12-01T21:29:44.626Z,101560.20
2022-12-01T21:32:17.907Z,101560.20
2022-12-01T21:34:49.432Z,101557.81
2022-12-01T21:37:23.457Z,101556.27
2022-12-01T21:39:52.824Z,101553.98
2022-12-01T21:42:25.157Z,101556.17
2022-12-01T21:44:53.675Z,101551.98
2022-12-01T21:47:22.926Z,101554.05
2022-12-01T21:49:58.252Z,101555.83
2022-12-01T21:52:30.394Z,101559.18
2022-12-01T21:55:22.270Z,101557.63
2022-12-01T21:57:51.927Z,101558.20
2022-12-01T22:00:36.935Z,101550.73
2022-12-01T22:03:36.417Z,101549.77
2022-12-01T22:06:30.958Z,101544.08
2022-12-01T22:09:02.202Z,101545.38
2022-12-01T22:11:30.924Z,101547.48
2022-12-01T22:14:15.313Z,101546.80
2022-12-01T22:16:45.343Z,101545.70
2022-12-01T22:19:30.837Z,101541.71
2022-12-01T22:22:08.439Z,101542.20
2022-12-01T22:24:56.635Z,101536.84
2022-12-01T22:27:35.849Z,101538.71
2022-12-01T22:30:06.469Z,101539.55
2022-12-01T22:32:38.550Z,101540.33
2022-12-01T22:35:27.494Z,101539.30
2022-12-01T22:38:09.274Z,101538.16
2022-12-01T22:40:38.273Z,101538.60
2022-12-01T22:43:29.450Z,101535.66
2022-12-01T22:46:00.075Z,101530.28
2022-12-01T22:48:33.751Z,101530.27
2022-12-01T22:51:33.240Z,101526.23
2022-12-01T22:54:28.201Z,101525.11
2022-12-01T22:57:02.801Z,101519.83
2022-12-01T22:59:38.658Z,101518.38
2022-12-01T23:02:34.283Z,101517.95
2022-12-01T23:05:20.305Z,101518.23
2022-12-01T23:07:48.438Z,101517.61
2022-12-01T23:10:19.517Z,101518.54
2022-12-01T23:12:50.048Z,101514.61
2022-12-01T23:15:20.785Z,101514.51
2022-12-01T23:17:49.347Z,101509.92
2022-12-01T23:20:28.009Z,101507.27
2022-12-01T23:22:58.265Z,101502.43
2022-12-01T23:25:27.323Z,101504.84
2022-12-01T23:27:59.501Z,101502.83
2022-12-01T23:30:27.860Z,101501.54
2022-12-01T23:33:16.517Z,101503.37
2022-12-01T23:36:23.258Z,101498.88
2022-12-01T23:38:55.537Z,101497.90
2022-12-01T23:41:29.837Z,101500.09
2022-12-01T23:44:00.600Z,101502.99
2022-12-01T23:46:28.453Z,101506.95
2022-12-01T23:49:20.789Z,101507.80
2022-12-01T23:51:51.505Z,101507.86
2022-12-01T23:54:27.083Z,101508.96
2022-12-01T23:56:57.161Z,101508.57
2022-12-01T23:59:25.548Z,101506.86
